map of BLM home
BLM - Airport
Location
City:  Belmar/Farmingdale, New Jersey, United States
Name:Monmouth Executive Airport
ICAO:KBLM
IATA:BLM
FAA LID:BLM

Details
Type:Airport (Airfield)
Use:Public/Civil
Latitude:4011'12"N (40.186750)
Longitude:7407'28"W (-74.124555)
Datum:WGS 1984
Elevation:153 ft (47 m)
Variation:12.71W (WMM2015 magnetic declination)
0.02 annual change
Runways:2
Longest:7371 × 85 ft (2247 × 26 m), paved

Time
Time Zone:UTC-5 (DST-4)
Local Time:

Weather
METAR:KBLM 161956Z AUTO 23013G18KT 10SM SCT049 04/M04 A3002 RMK AO2 SLP171 P0001 T00391044

Related Locations
Nearby:
Farthest:MQZ: 11770 mi / 18942 km
Margaret River [Margaret River Airport], WA, AU

Find:

   beyond  
but within

Other Information
Maps:
NOTAMs:
Links:
Sources:

  
flag of United States
flag of New Jersey
  

Sectional Chart

Flight Planning
at skyvector.com

Satellite Image

Google Maps Satellite view

 

Copyright © 2004-2017 Karl L. Swartz. All rights reserved.
The Great Circle Mapper name and logo are trademarks of the Great Circle Mapper.
All other trademarks mentioned herein belong to their respective owners.
Please see credits for attibutions and further copyright information.

  Follow gcmap on Facebook Follow gcmap on Twitter Follow gcmap on Google+ GCmap on LinkedIn

hCard Microformat

Geo Microformat